Time;durP1;ratioP1;P1;durP2;ratioP2;P2;SDS_P1;SDS_P2;PMS_P1;PMS_P2;Temp;Humidity;BMP_temperature;BMP_pressure;BME280_temperature;BME280_humidity;BME280_pressure;Samples;Min_cycle;Max_cycle;Signal;HPM_P1;HPM_P2
2022/02/22 00:00:12;;;;;;;;;;;3.00;99.90;;;;;;5069134;28;19924;-89
2022/02/22 00:02:40;;;;;;;;;;;3.00;99.90;;;;;;5046204;28;19924;-90
2022/02/22 00:05:06;;;;;;;;;;;3.00;99.90;;;;;;5068449;28;19919;-90
2022/02/22 00:07:31;;;;;;;;;;;3.00;99.90;;;;;;5065401;28;20355;-90
2022/02/22 00:09:57;;;;;;;;;;;3.00;99.90;;;;;;5067852;28;19912;-90
2022/02/22 00:12:23;;;;;;;;;;;3.00;99.90;;;;;;5048173;28;19947;-90
2022/02/22 00:14:48;;;;;;;;;;;3.00;99.90;;;;;;5047078;28;19924;-91
2022/02/22 00:17:14;;;;;;;;;;;3.00;99.90;;;;;;5075699;28;19916;-90
2022/02/22 00:19:40;;;;;;;;;;;3.00;99.90;;;;;;5071186;28;20008;-90
2022/02/22 00:22:06;;;;;;;;;;;3.00;99.90;;;;;;5065794;28;20131;-90
2022/02/22 00:24:32;;;;;;;;;;;3.00;99.90;;;;;;5038923;28;20366;-90
2022/02/22 00:26:58;;;;;;;;;;;3.00;99.90;;;;;;5061817;28;19974;-90
2022/02/22 00:29:24;;;;;;;;;;;3.00;99.90;;;;;;5051787;28;19951;-90
2022/02/22 00:31:49;;;;;;;;;;;3.10;99.90;;;;;;5054448;28;19919;-90
2022/02/22 00:34:15;;;;;;;;;;;3.10;99.90;;;;;;5070419;28;19919;-90
2022/02/22 00:36:43;;;;;;;;;;;3.10;99.90;;;;;;5068020;28;19920;-90
2022/02/22 00:39:09;;;;;;;;;;;3.10;99.90;;;;;;5067618;28;19924;-90
2022/02/22 00:41:35;;;;;;;;;;;3.10;99.90;;;;;;5043426;28;19919;-91
2022/02/22 00:44:01;;;;;;;;;;;3.10;99.90;;;;;;5061647;28;19915;-91
2022/02/22 00:46:26;;;;;;;;;;;3.10;99.90;;;;;;5054470;28;19923;-90
2022/02/22 00:48:52;;;;;;;;;;;3.10;99.90;;;;;;5054330;28;19908;-90
2022/02/22 00:51:18;;;;;;;;;;;3.10;99.90;;;;;;5069858;28;20405;-90
2022/02/22 00:53:44;;;;;;;;;;;3.10;99.90;;;;;;5041489;28;19912;-90
2022/02/22 00:56:09;;;;;;;;;;;3.10;99.90;;;;;;5054180;28;20397;-90
2022/02/22 00:58:35;;;;;;;;;;;3.10;99.90;;;;;;5071259;28;20450;-91
2022/02/22 01:01:01;;;;;;;;;;;3.10;99.90;;;;;;5051073;28;19908;-90
2022/02/22 01:03:26;;;;;;;;;;;3.00;99.90;;;;;;5048212;28;19966;-90
2022/02/22 01:05:52;;;;;;;;;;;3.00;99.90;;;;;;5052738;28;19913;-90
2022/02/22 01:08:18;;;;;;;;;;;3.00;99.90;;;;;;5054424;28;20358;-90
2022/02/22 01:10:44;;;;;;;;;;;2.90;99.90;;;;;;5052804;28;20450;-90
2022/02/22 01:13:10;;;;;;;;;;;2.80;99.90;;;;;;5053261;28;19916;-90
2022/02/22 01:15:36;;;;;;;;;;;2.90;99.90;;;;;;5070718;28;19913;-90
2022/02/22 01:18:02;;;;;;;;;;;2.90;99.90;;;;;;5037685;28;19923;-90
2022/02/22 01:20:28;;;;;;;;;;;2.90;99.90;;;;;;5068598;28;19920;-88
2022/02/22 01:22:56;;;;;;;;;;;2.90;99.90;;;;;;5053210;28;19956;-90
2022/02/22 01:25:26;;;;;;;;;;;2.90;99.90;;;;;;5070894;28;19995;-90
2022/02/22 01:27:52;;;;;;;;;;;3.00;99.90;;;;;;5053992;28;20015;-90
2022/02/22 01:30:18;;;;;;;;;;;3.00;99.90;;;;;;5053891;28;19954;-90
2022/02/22 01:32:44;;;;;;;;;;;3.00;99.90;;;;;;5046215;28;19962;-89
2022/02/22 01:35:09;;;;;;;;;;;3.00;99.90;;;;;;5070939;28;19999;-90
2022/02/22 01:37:35;;;;;;;;;;;3.00;99.90;;;;;;5049926;28;20290;-90
2022/02/22 01:40:01;;;;;;;;;;;3.00;99.90;;;;;;5052594;28;20003;-90
2022/02/22 01:42:27;;;;;;;;;;;3.00;99.90;;;;;;5066308;28;20378;-90
2022/02/22 01:44:52;;;;;;;;;;;3.00;99.90;;;;;;5050578;28;19935;-90
2022/02/22 01:47:18;;;;;;;;;;;3.00;99.90;;;;;;5053281;28;19956;-90
2022/02/22 01:49:44;;;;;;;;;;;3.00;99.90;;;;;;5070360;28;20385;-90
2022/02/22 01:52:10;;;;;;;;;;;3.10;99.90;;;;;;5049597;28;19952;-90
2022/02/22 01:54:36;;;;;;;;;;;3.10;99.90;;;;;;5050075;28;20342;-90
2022/02/22 01:57:02;;;;;;;;;;;3.10;99.90;;;;;;5057756;28;19916;-90
2022/02/22 01:59:28;;;;;;;;;;;3.10;99.90;;;;;;5057366;28;19958;-90
2022/02/22 02:01:54;;;;;;;;;;;3.10;99.90;;;;;;5050550;28;19921;-90
2022/02/22 02:04:20;;;;;;;;;;;3.10;99.90;;;;;;5038585;28;19913;-90
2022/02/22 02:06:45;;;;;;;;;;;3.10;99.90;;;;;;5073304;28;19918;-90
2022/02/22 02:09:11;;;;;;;;;;;3.10;99.90;;;;;;5057520;28;19952;-90
2022/02/22 02:11:48;;;;;;;;;;;3.10;99.90;;;;;;5049263;28;19916;-90
2022/02/22 02:14:14;;;;;;;;;;;3.10;99.90;;;;;;5054458;28;19919;-90
2022/02/22 02:16:40;;;;;;;;;;;3.10;99.90;;;;;;5057037;28;19923;-89
2022/02/22 02:19:08;;;;;;;;;;;3.10;99.90;;;;;;5054487;28;19951;-90
2022/02/22 02:21:34;;;;;;;;;;;3.10;99.90;;;;;;5049695;28;19940;-89
2022/02/22 02:24:07;;;;;;;;;;;3.10;99.90;;;;;;5047359;28;19924;-90
2022/02/22 02:26:33;;;;;;;;;;;3.00;99.90;;;;;;5040505;28;20422;-90
2022/02/22 02:28:58;;;;;;;;;;;3.00;99.90;;;;;;5020411;28;20048;-90
2022/02/22 02:31:24;;;;;;;;;;;3.00;99.90;;;;;;5047489;28;20382;-90
2022/02/22 02:33:50;;;;;;;;;;;3.00;99.90;;;;;;5050448;28;19959;-89
2022/02/22 02:36:15;;;;;;;;;;;3.00;99.90;;;;;;5056494;28;19913;-90
2022/02/22 02:38:41;;;;;;;;;;;3.00;99.90;;;;;;5057192;28;19920;-90
2022/02/22 02:41:07;;;;;;;;;;;3.00;99.90;;;;;;5061175;28;20053;-90
2022/02/22 02:43:32;;;;;;;;;;;3.00;99.90;;;;;;5066246;28;19943;-89
2022/02/22 02:45:58;;;;;;;;;;;3.00;99.90;;;;;;5056445;28;19963;-90
2022/02/22 02:48:24;;;;;;;;;;;2.90;99.90;;;;;;5045813;28;20358;-89
2022/02/22 02:50:50;;;;;;;;;;;2.90;99.90;;;;;;5070864;28;19974;-90
2022/02/22 02:53:16;;;;;;;;;;;3.00;99.90;;;;;;5055667;28;19925;-90
2022/02/22 02:55:42;;;;;;;;;;;2.90;99.90;;;;;;5057255;28;19912;-90
2022/02/22 02:58:07;;;;;;;;;;;3.00;99.90;;;;;;5059173;28;19963;-88
2022/02/22 03:00:33;;;;;;;;;;;3.00;99.90;;;;;;5053567;28;19917;-90
2022/02/22 03:02:59;;;;;;;;;;;3.00;99.90;;;;;;5064425;28;19930;-90
2022/02/22 03:05:25;;;;;;;;;;;3.00;99.90;;;;;;5052212;28;19927;-90
2022/02/22 03:07:54;;;;;;;;;;;2.90;99.90;;;;;;5038055;28;19924;-90
2022/02/22 03:10:20;;;;;;;;;;;2.90;99.90;;;;;;5087201;28;19943;-89
2022/02/22 03:12:46;;;;;;;;;;;2.90;99.90;;;;;;5057989;28;20271;-90
2022/02/22 03:15:11;;;;;;;;;;;3.00;99.90;;;;;;5058465;28;19913;-90
2022/02/22 03:17:37;;;;;;;;;;;3.00;99.90;;;;;;5058083;28;19916;-90
2022/02/22 03:20:04;;;;;;;;;;;2.90;99.90;;;;;;5058738;28;19913;-90
2022/02/22 03:22:30;;;;;;;;;;;2.90;99.90;;;;;;5072985;28;20388;-90
2022/02/22 03:24:56;;;;;;;;;;;2.90;99.90;;;;;;5055616;28;19912;-90
2022/02/22 03:27:22;;;;;;;;;;;2.90;99.90;;;;;;5073348;28;20408;-90
2022/02/22 03:29:47;;;;;;;;;;;2.90;99.90;;;;;;5053984;28;20393;-90
2022/02/22 03:32:13;;;;;;;;;;;2.90;99.90;;;;;;5053426;28;19960;-90
2022/02/22 03:34:39;;;;;;;;;;;2.90;99.90;;;;;;5071884;28;19955;-90
2022/02/22 03:37:05;;;;;;;;;;;2.90;99.90;;;;;;5075093;28;19917;-89
2022/02/22 03:39:30;;;;;;;;;;;2.90;99.90;;;;;;5054187;28;20386;-90
2022/02/22 03:41:56;;;;;;;;;;;2.90;99.90;;;;;;5050057;28;19981;-90
2022/02/22 03:44:22;;;;;;;;;;;2.90;99.90;;;;;;5074391;28;19913;-90
2022/02/22 03:46:48;;;;;;;;;;;2.90;99.90;;;;;;5039564;28;19913;-90
2022/02/22 03:49:14;;;;;;;;;;;2.80;99.90;;;;;;5040501;28;19969;-89
2022/02/22 03:51:40;;;;;;;;;;;2.80;99.90;;;;;;5055766;28;19917;-90
2022/02/22 03:54:06;;;;;;;;;;;2.80;99.90;;;;;;5051114;28;19913;-90
2022/02/22 03:56:32;;;;;;;;;;;2.80;99.90;;;;;;5057887;28;19923;-90
2022/02/22 03:58:57;;;;;;;;;;;2.80;99.90;;;;;;5058246;28;19912;-90
2022/02/22 04:01:23;;;;;;;;;;;2.80;99.90;;;;;;5065570;28;19966;-90
2022/02/22 04:03:49;;;;;;;;;;;2.80;99.90;;;;;;5057213;28;20426;-90
2022/02/22 04:06:15;;;;;;;;;;;2.80;99.90;;;;;;5057251;28;19955;-90
2022/02/22 04:08:40;;;;;;;;;;;2.80;99.90;;;;;;5071831;28;20015;-90
2022/02/22 04:11:06;;;;;;;;;;;2.70;99.90;;;;;;5070479;28;19913;-91
2022/02/22 04:13:32;;;;;;;;;;;2.70;99.90;;;;;;5072618;28;19913;-90
2022/02/22 04:15:58;;;;;;;;;;;2.70;99.90;;;;;;5053749;28;19916;-91
2022/02/22 04:18:23;;;;;;;;;;;2.70;99.90;;;;;;5036879;28;19913;-91
2022/02/22 04:20:49;;;;;;;;;;;2.60;99.90;;;;;;5040660;28;19913;-92
2022/02/22 04:23:15;;;;;;;;;;;2.60;99.90;;;;;;5065282;28;20441;-90
2022/02/22 04:25:40;;;;;;;;;;;2.50;99.90;;;;;;5072087;28;19912;-91
2022/02/22 04:28:06;;;;;;;;;;;2.50;99.90;;;;;;5073589;28;19913;-91
2022/02/22 04:30:32;;;;;;;;;;;2.40;99.90;;;;;;5072547;28;20541;-90
2022/02/22 04:32:58;;;;;;;;;;;2.40;99.90;;;;;;5066235;28;19920;-91
2022/02/22 04:35:23;;;;;;;;;;;2.40;99.90;;;;;;5056711;28;20366;-91
2022/02/22 04:37:49;;;;;;;;;;;2.30;99.90;;;;;;5056607;28;20260;-91
2022/02/22 04:40:15;;;;;;;;;;;2.20;99.90;;;;;;5056931;28;19952;-91
2022/02/22 04:42:48;;;;;;;;;;;2.30;99.90;;;;;;5040261;28;19974;-91
2022/02/22 04:45:14;;;;;;;;;;;2.20;99.90;;;;;;5056801;28;19912;-91
2022/02/22 04:47:40;;;;;;;;;;;2.20;99.90;;;;;;5056280;28;20290;-92
2022/02/22 04:50:06;;;;;;;;;;;2.10;99.90;;;;;;5072333;28;20405;-91
2022/02/22 04:52:31;;;;;;;;;;;2.00;99.90;;;;;;5054842;28;19919;-91
2022/02/22 04:54:59;;;;;;;;;;;2.00;99.90;;;;;;5072861;28;19917;-91
2022/02/22 04:57:25;;;;;;;;;;;1.90;99.90;;;;;;5072567;28;19938;-91
2022/02/22 04:59:51;;;;;;;;;;;1.90;99.90;;;;;;5065005;28;19976;-91
2022/02/22 05:02:16;;;;;;;;;;;1.90;99.90;;;;;;5067027;28;19956;-90
2022/02/22 05:04:42;;;;;;;;;;;1.80;99.90;;;;;;5052327;28;19999;-91
2022/02/22 05:07:08;;;;;;;;;;;1.70;99.90;;;;;;5039435;28;19916;-91
2022/02/22 05:09:33;;;;;;;;;;;1.60;99.90;;;;;;5056235;28;19912;-91
2022/02/22 05:11:59;;;;;;;;;;;1.60;99.90;;;;;;5046463;28;19919;-91
2022/02/22 05:14:25;;;;;;;;;;;1.60;99.90;;;;;;5052594;28;19916;-92
2022/02/22 05:16:51;;;;;;;;;;;1.50;99.90;;;;;;5046442;28;19917;-91
2022/02/22 05:19:17;;;;;;;;;;;1.50;99.90;;;;;;5037595;28;20371;-91
2022/02/22 05:21:44;;;;;;;;;;;1.50;99.90;;;;;;5070141;28;19935;-91
2022/02/22 05:24:17;;;;;;;;;;;1.50;99.90;;;;;;5072127;28;20007;-91
2022/02/22 05:26:42;;;;;;;;;;;1.40;99.90;;;;;;5056157;28;20374;-91
2022/02/22 05:29:08;;;;;;;;;;;1.40;99.90;;;;;;5055867;28;19916;-91
2022/02/22 05:31:34;;;;;;;;;;;1.40;99.90;;;;;;5059474;28;19920;-91
2022/02/22 05:34:00;;;;;;;;;;;1.40;99.90;;;;;;5059152;28;19966;-90
2022/02/22 05:36:25;;;;;;;;;;;1.40;99.90;;;;;;5059856;28;19939;-91
2022/02/22 05:38:51;;;;;;;;;;;1.30;99.90;;;;;;5039959;28;19912;-90
2022/02/22 05:41:20;;;;;;;;;;;1.40;99.90;;;;;;5055877;28;19917;-91
2022/02/22 05:43:46;;;;;;;;;;;1.40;99.90;;;;;;5038510;28;19917;-91
2022/02/22 05:46:12;;;;;;;;;;;1.40;99.90;;;;;;5047190;28;19913;-90
2022/02/22 05:48:37;;;;;;;;;;;1.40;99.90;;;;;;5059534;28;20003;-91
2022/02/22 05:51:03;;;;;;;;;;;1.40;99.90;;;;;;5055577;28;19919;-90
2022/02/22 05:53:29;;;;;;;;;;;1.40;99.90;;;;;;5039242;28;19913;-91
2022/02/22 05:55:54;;;;;;;;;;;1.40;99.90;;;;;;5046981;28;20386;-91
2022/02/22 05:58:20;;;;;;;;;;;1.40;99.90;;;;;;5055118;28;19935;-91
2022/02/22 06:00:45;;;;;;;;;;;1.40;99.90;;;;;;5055016;28;19913;-91
2022/02/22 06:03:11;;;;;;;;;;;1.40;99.90;;;;;;5072915;28;19916;-90
2022/02/22 06:05:37;;;;;;;;;;;1.40;99.90;;;;;;5038088;28;20003;-90
2022/02/22 06:08:03;;;;;;;;;;;1.50;99.90;;;;;;5037760;28;20425;-90
2022/02/22 06:10:28;;;;;;;;;;;1.50;99.90;;;;;;5038500;28;19916;-91
2022/02/22 06:12:54;;;;;;;;;;;1.50;99.90;;;;;;5038252;28;20277;-91
2022/02/22 06:15:20;;;;;;;;;;;1.50;99.90;;;;;;5053330;28;20398;-90
2022/02/22 06:17:46;;;;;;;;;;;1.60;99.90;;;;;;5054774;28;20057;-91
2022/02/22 06:20:13;;;;;;;;;;;1.50;99.90;;;;;;5055059;28;19921;-91
2022/02/22 06:22:39;;;;;;;;;;;1.60;99.90;;;;;;5054453;28;19921;-91
2022/02/22 06:25:05;;;;;;;;;;;1.60;99.90;;;;;;5059523;28;20054;-91
2022/02/22 06:27:31;;;;;;;;;;;1.60;99.90;;;;;;5055436;28;19908;-91
2022/02/22 06:29:57;;;;;;;;;;;1.70;99.90;;;;;;5074939;28;19916;-91
2022/02/22 06:32:23;;;;;;;;;;;1.70;99.90;;;;;;5074148;28;19912;-91
2022/02/22 06:34:49;;;;;;;;;;;1.70;99.90;;;;;;5049657;28;20283;-91
2022/02/22 06:37:14;;;;;;;;;;;1.70;99.90;;;;;;5054349;28;20294;-91
2022/02/22 06:39:40;;;;;;;;;;;1.70;99.90;;;;;;5055257;28;19919;-90
2022/02/22 06:42:06;;;;;;;;;;;1.70;99.90;;;;;;5070637;28;19939;-91
2022/02/22 06:44:35;;;;;;;;;;;1.70;99.90;;;;;;5054431;28;19936;-91
2022/02/22 06:47:01;;;;;;;;;;;1.70;99.90;;;;;;5057285;28;19919;-90
2022/02/22 06:49:26;;;;;;;;;;;1.60;99.90;;;;;;5073414;28;20271;-90
2022/02/22 06:51:52;;;;;;;;;;;1.60;99.90;;;;;;5037974;28;19912;-90
2022/02/22 06:54:18;;;;;;;;;;;1.60;99.90;;;;;;5056492;28;19912;-90
2022/02/22 06:56:44;;;;;;;;;;;1.60;99.90;;;;;;5064313;28;19964;-90
2022/02/22 06:59:10;;;;;;;;;;;1.60;99.90;;;;;;5056484;28;19964;-90
2022/02/22 07:01:35;;;;;;;;;;;1.60;99.90;;;;;;5072085;28;19947;-90
2022/02/22 07:04:01;;;;;;;;;;;1.60;99.90;;;;;;5056679;28;19917;-90
2022/02/22 07:06:27;;;;;;;;;;;1.60;99.90;;;;;;5056974;28;19930;-90
2022/02/22 07:08:52;;;;;;;;;;;1.60;99.90;;;;;;5057192;28;19958;-90
2022/02/22 07:11:18;;;;;;;;;;;1.70;99.90;;;;;;5053202;28;19920;-89
2022/02/22 07:13:43;;;;;;;;;;;1.70;99.90;;;;;;5057054;28;19913;-91
2022/02/22 07:16:12;;;;;;;;;;;1.90;99.90;;;;;;5073891;28;19963;-91
2022/02/22 07:18:37;;;;;;;;;;;2.00;99.90;;;;;;5056790;28;19920;-90
2022/02/22 07:21:03;;;;;;;;;;;2.10;99.90;;;;;;5055789;28;20255;-90
2022/02/22 07:23:29;;;;;;;;;;;2.20;99.90;;;;;;5061221;28;19916;-91
2022/02/22 07:25:54;;;;;;;;;;;2.40;99.90;;;;;;5047436;28;19913;-91
2022/02/22 07:28:20;;;;;;;;;;;2.50;99.90;;;;;;5073081;28;19913;-91
2022/02/22 07:30:46;;;;;;;;;;;2.70;99.90;;;;;;5053245;28;19912;-91
2022/02/22 07:33:12;;;;;;;;;;;2.90;99.90;;;;;;5062257;28;19919;-90
2022/02/22 07:35:37;;;;;;;;;;;3.10;99.90;;;;;;5051557;28;19999;-91
2022/02/22 07:38:03;;;;;;;;;;;3.20;99.90;;;;;;5033210;28;20360;-91
2022/02/22 07:40:29;;;;;;;;;;;3.30;99.90;;;;;;5062595;28;19951;-90
2022/02/22 07:42:55;;;;;;;;;;;3.30;99.90;;;;;;5050663;28;20414;-91
2022/02/22 07:45:21;;;;;;;;;;;3.30;99.90;;;;;;5052053;28;19913;-90
2022/02/22 07:47:46;;;;;;;;;;;3.10;99.90;;;;;;5054032;28;20716;-91
2022/02/22 07:50:12;;;;;;;;;;;3.10;99.90;;;;;;5051807;28;19912;-90
2022/02/22 07:52:38;;;;;;;;;;;3.10;99.90;;;;;;5054297;28;19912;-89
2022/02/22 07:55:05;;;;;;;;;;;3.10;99.90;;;;;;5052367;28;19920;-89
2022/02/22 07:57:30;;;;;;;;;;;3.10;99.90;;;;;;5055645;28;19916;-90
2022/02/22 07:59:56;;;;;;;;;;;3.00;99.90;;;;;;5052266;28;19919;-92
2022/02/22 08:02:22;;;;;;;;;;;3.00;99.90;;;;;;5072117;28;19916;-92
2022/02/22 08:04:47;;;;;;;;;;;2.90;99.90;;;;;;5052456;28;19912;-92
2022/02/22 08:07:14;;;;;;;;;;;2.90;99.90;;;;;;5072181;28;19957;-92
2022/02/22 08:09:40;;;;;;;;;;;2.80;99.90;;;;;;5055854;28;19920;-88
2022/02/22 08:12:05;;;;;;;;;;;2.80;99.90;;;;;;5068748;28;20000;-90
2022/02/22 08:14:31;;;;;;;;;;;2.80;99.90;;;;;;5062041;28;19912;-92
2022/02/22 08:16:59;;;;;;;;;;;2.80;99.90;;;;;;5053328;28;20046;-91
2022/02/22 08:19:29;;;;;;;;;;;2.80;99.90;;;;;;5054858;28;19912;-93
2022/02/22 08:21:55;;;;;;;;;;;2.70;99.90;;;;;;5070969;28;20013;-91
2022/02/22 08:24:24;;;;;;;;;;;2.80;99.90;;;;;;5034954;28;20378;-88
2022/02/22 08:26:54;;;;;;;;;;;2.70;99.90;;;;;;5050570;28;19966;-91
2022/02/22 08:29:20;;;;;;;;;;;2.70;99.90;;;;;;5059930;28;20006;-91
2022/02/22 08:31:45;;;;;;;;;;;2.80;99.90;;;;;;5052711;28;19966;-91
2022/02/22 08:34:11;;;;;;;;;;;2.80;99.90;;;;;;5047331;28;19913;-92
2022/02/22 08:36:37;;;;;;;;;;;2.80;99.90;;;;;;5063937;28;19917;-88
2022/02/22 08:39:02;;;;;;;;;;;2.80;99.90;;;;;;5050453;28;19916;-91
2022/02/22 08:41:28;;;;;;;;;;;2.80;99.90;;;;;;5048972;28;20001;-90
2022/02/22 08:43:54;;;;;;;;;;;2.90;99.90;;;;;;5051429;28;19916;-90
2022/02/22 08:46:20;;;;;;;;;;;3.00;99.90;;;;;;5067140;28;20269;-92
2022/02/22 08:48:47;;;;;;;;;;;3.00;99.90;;;;;;5047972;28;19962;-88
2022/02/22 08:51:12;;;;;;;;;;;3.00;99.90;;;;;;5067780;28;19924;-91
2022/02/22 08:53:38;;;;;;;;;;;3.10;99.90;;;;;;5065522;28;19919;-91
2022/02/22 08:56:05;;;;;;;;;;;3.20;99.90;;;;;;5063821;28;20386;-91
2022/02/22 08:58:31;;;;;;;;;;;3.20;99.90;;;;;;5055437;28;19924;-91
2022/02/22 09:00:58;;;;;;;;;;;3.30;99.90;;;;;;5084115;28;20320;-91
2022/02/22 09:03:24;;;;;;;;;;;3.40;99.90;;;;;;5066151;28;19916;-91
2022/02/22 09:05:49;;;;;;;;;;;3.50;99.90;;;;;;5059138;28;20425;-90
2022/02/22 09:08:15;;;;;;;;;;;3.50;99.90;;;;;;5052056;28;19913;-90
2022/02/22 09:10:43;;;;;;;;;;;3.60;99.90;;;;;;5070103;28;20322;-91
2022/02/22 09:13:10;;;;;;;;;;;3.70;99.90;;;;;;5065023;28;19951;-89
2022/02/22 09:15:37;;;;;;;;;;;3.70;99.90;;;;;;5066134;28;19935;-93
2022/02/22 09:18:03;;;;;;;;;;;3.70;99.90;;;;;;5053309;28;20003;-91
2022/02/22 09:20:29;;;;;;;;;;;3.80;99.90;;;;;;5067810;28;20021;-88
2022/02/22 09:22:54;;;;;;;;;;;3.80;99.90;;;;;;5046251;28;20011;-88
2022/02/22 09:25:20;;;;;;;;;;;3.80;99.90;;;;;;5063896;28;20015;-88
2022/02/22 09:27:46;;;;;;;;;;;3.90;99.90;;;;;;5056416;28;20379;-92
2022/02/22 09:30:14;;;;;;;;;;;3.90;99.90;;;;;;5044161;28;19913;-91
2022/02/22 09:32:40;;;;;;;;;;;4.00;99.90;;;;;;5070267;28;20015;-90
2022/02/22 09:35:06;;;;;;;;;;;4.00;99.90;;;;;;5065682;28;19978;-91
2022/02/22 09:37:31;;;;;;;;;;;4.00;99.90;;;;;;5052539;28;19919;-90
2022/02/22 09:39:57;;;;;;;;;;;4.10;99.90;;;;;;5037462;28;20321;-90
2022/02/22 09:42:25;;;;;;;;;;;4.10;99.90;;;;;;5067348;28;20337;-91
2022/02/22 09:44:51;;;;;;;;;;;4.20;99.90;;;;;;5034097;28;20397;-89
2022/02/22 09:47:17;;;;;;;;;;;4.20;99.90;;;;;;5033531;28;19989;-89
2022/02/22 09:49:43;;;;;;;;;;;4.30;99.90;;;;;;5042019;28;20418;-89
2022/02/22 09:52:09;;;;;;;;;;;4.30;99.90;;;;;;5067404;28;19954;-88
2022/02/22 09:54:35;;;;;;;;;;;4.30;99.90;;;;;;5049322;28;19917;-92
2022/02/22 09:57:01;;;;;;;;;;;4.40;99.90;;;;;;5057578;28;19924;-92
2022/02/22 09:59:26;;;;;;;;;;;4.40;99.90;;;;;;5051744;28;19912;-91
2022/02/22 10:01:53;;;;;;;;;;;4.40;99.90;;;;;;5051066;28;19942;-88
2022/02/22 10:04:20;;;;;;;;;;;4.50;99.90;;;;;;5066862;28;19991;-88
2022/02/22 10:06:46;;;;;;;;;;;4.60;99.90;;;;;;5049783;28;20359;-90
2022/02/22 10:09:13;;;;;;;;;;;4.60;99.90;;;;;;5050688;28;20035;-90
2022/02/22 10:11:50;;;;;;;;;;;4.60;99.90;;;;;;5053164;28;19917;-89
2022/02/22 10:14:26;;;;;;;;;;;4.70;99.90;;;;;;5053734;28;20253;-89
2022/02/22 10:16:53;;;;;;;;;;;4.70;99.90;;;;;;5073041;28;19999;-88
2022/02/22 10:19:20;;;;;;;;;;;4.70;99.90;;;;;;5060942;23;19933;-80
2022/02/22 10:21:47;;;;;;;;;;;4.80;99.90;;;;;;5031939;28;19917;-81
2022/02/22 10:24:15;;;;;;;;;;;4.80;99.90;;;;;;5058515;28;19921;-80
2022/02/22 10:26:41;;;;;;;;;;;4.70;99.90;;;;;;5054694;28;19909;-80
2022/02/22 10:29:17;;;;;;;;;;;4.80;99.90;;;;;;5059013;28;19920;-81
2022/02/22 10:31:44;;;;;;;;;;;4.70;99.90;;;;;;5056458;28;20309;-80
2022/02/22 10:34:10;;;;;;;;;;;4.70;99.90;;;;;;5054257;28;19916;-81
2022/02/22 10:36:37;;;;;;;;;;;4.70;99.90;;;;;;5035438;28;20332;-80
2022/02/22 10:39:04;;;;;;;;;;;4.70;99.90;;;;;;5054606;28;19917;-81
2022/02/22 10:41:34;;;;;;;;;;;4.70;99.90;;;;;;5056270;28;19939;-80
2022/02/22 10:43:59;;;;;;;;;;;4.80;99.90;;;;;;5055840;28;20405;-80
2022/02/22 10:46:32;;;;;;;;;;;5.00;99.90;;;;;;5056244;28;20003;-81
2022/02/22 10:48:59;;;;;;;;;;;5.10;99.90;;;;;;5041142;28;19921;-82
2022/02/22 10:51:31;;;;;;;;;;;5.30;99.90;;;;;;5052333;28;19920;-80
2022/02/22 10:53:57;;;;;;;;;;;5.40;99.90;;;;;;5054296;28;19920;-79
2022/02/22 10:56:22;;;;;;;;;;;5.60;99.90;;;;;;5050745;28;19912;-80
2022/02/22 10:58:48;;;;;;;;;;;5.70;99.90;;;;;;5043964;28;19920;-80
2022/02/22 11:01:23;;;;;;;;;;;5.80;99.90;;;;;;5055883;28;20416;-80
2022/02/22 11:03:50;;;;;;;;;;;5.80;99.90;;;;;;5055574;28;19921;-79
2022/02/22 11:06:16;;;;;;;;;;;5.80;99.90;;;;;;5047002;28;19971;-79
2022/02/22 11:08:46;;;;;;;;;;;5.70;99.90;;;;;;5047847;28;20286;-81
2022/02/22 11:11:17;;;;;;;;;;;5.60;99.90;;;;;;5072347;28;20058;-80
2022/02/22 11:13:42;;;;;;;;;;;5.60;99.90;;;;;;5071023;28;19921;-80
2022/02/22 11:16:08;;;;;;;;;;;5.70;99.90;;;;;;5031945;28;19928;-80
2022/02/22 11:18:41;;;;;;;;;;;5.90;99.90;;;;;;5048288;28;19944;-80
2022/02/22 11:21:10;;;;;;;;;;;6.10;99.90;;;;;;5052293;28;20015;-80
2022/02/22 11:26:17;;;;;;;;;;;6.40;99.90;;;;;;5072039;28;20293;-80
2022/02/22 11:28:42;;;;;;;;;;;6.40;99.90;;;;;;5074738;28;20374;-80
2022/02/22 11:31:12;;;;;;;;;;;6.40;99.90;;;;;;5076777;28;19915;-79
2022/02/22 11:33:46;;;;;;;;;;;6.30;99.90;;;;;;5065693;28;20007;-79
2022/02/22 11:36:12;;;;;;;;;;;6.20;99.90;;;;;;5050055;28;19963;-80
2022/02/22 11:38:47;;;;;;;;;;;6.10;99.90;;;;;;5047155;28;20393;-79
2022/02/22 11:41:18;;;;;;;;;;;6.00;99.90;;;;;;5072057;28;19912;-79
2022/02/22 11:43:51;;;;;;;;;;;5.90;99.90;;;;;;5052666;28;19920;-80
2022/02/22 11:46:16;;;;;;;;;;;5.90;99.90;;;;;;5052603;28;19944;-80
2022/02/22 11:48:42;;;;;;;;;;;5.90;99.90;;;;;;5046527;28;19916;-79
2022/02/22 11:51:12;;;;;;;;;;;5.80;99.90;;;;;;5050473;28;20396;-80
2022/02/22 11:53:38;;;;;;;;;;;5.90;99.90;;;;;;5053016;28;19916;-79
2022/02/22 11:56:04;;;;;;;;;;;5.90;99.90;;;;;;5052161;28;20382;-80
2022/02/22 11:58:36;;;;;;;;;;;6.00;99.90;;;;;;5048680;28;19917;-80
2022/02/22 12:01:05;;;;;;;;;;;6.00;99.90;;;;;;5043144;28;19914;-81
2022/02/22 12:03:44;;;;;;;;;;;6.20;99.90;;;;;;5038245;28;20928;-80
2022/02/22 12:06:10;;;;;;;;;;;6.30;99.90;;;;;;5045231;28;19924;-80
2022/02/22 12:08:41;;;;;;;;;;;6.40;99.90;;;;;;5045736;28;19913;-80
2022/02/22 12:11:18;;;;;;;;;;;6.40;99.90;;;;;;5022415;28;19912;-80
2022/02/22 12:13:44;;;;;;;;;;;6.50;99.90;;;;;;5056390;28;20012;-80
2022/02/22 12:16:14;;;;;;;;;;;6.50;99.90;;;;;;5045822;28;19917;-80
2022/02/22 12:18:41;;;;;;;;;;;6.40;99.90;;;;;;5043040;28;19921;-80
2022/02/22 12:21:07;;;;;;;;;;;6.50;99.90;;;;;;5059920;28;19913;-80
2022/02/22 12:23:37;;;;;;;;;;;6.60;99.90;;;;;;5030382;28;20424;-80
2022/02/22 12:26:07;;;;;;;;;;;6.60;99.90;;;;;;5044293;28;20014;-79
2022/02/22 12:28:42;;;;;;;;;;;6.60;99.90;;;;;;5048543;28;19980;-80
2022/02/22 12:31:07;;;;;;;;;;;6.70;99.90;;;;;;5042642;28;20294;-80
2022/02/22 12:33:33;;;;;;;;;;;6.70;99.90;;;;;;5061766;28;19918;-80
2022/02/22 12:36:11;;;;;;;;;;;6.80;99.90;;;;;;5026802;28;19975;-80
2022/02/22 12:38:37;;;;;;;;;;;6.80;99.90;;;;;;5060239;28;20623;-78
2022/02/22 12:41:10;;;;;;;;;;;6.80;99.90;;;;;;5061492;28;19951;-82
2022/02/22 12:43:49;;;;;;;;;;;6.80;99.90;;;;;;5060004;28;19993;-80
2022/02/22 12:46:20;;;;;;;;;;;6.80;99.90;;;;;;5041185;28;19913;-79
2022/02/22 12:48:45;;;;;;;;;;;6.80;99.90;;;;;;5069348;28;19962;-81
2022/02/22 12:51:18;;;;;;;;;;;6.80;99.90;;;;;;5052787;28;19972;-79
2022/02/22 12:53:54;;;;;;;;;;;6.70;99.90;;;;;;5039673;28;19912;-81
2022/02/22 12:56:26;;;;;;;;;;;6.60;99.90;;;;;;5048084;28;19917;-81
2022/02/22 12:58:51;;;;;;;;;;;6.50;99.90;;;;;;5044867;28;19916;-79
2022/02/22 13:01:17;;;;;;;;;;;6.40;99.90;;;;;;5055564;28;19912;-82
2022/02/22 13:03:44;;;;;;;;;;;6.40;99.90;;;;;;5073446;28;19917;-82
2022/02/22 13:06:13;;;;;;;;;;;6.40;99.90;;;;;;5051904;28;20363;-81
2022/02/22 13:08:40;;;;;;;;;;;6.30;99.90;;;;;;5063300;28;19959;-83
2022/02/22 13:11:05;;;;;;;;;;;6.40;99.90;;;;;;5070396;28;19928;-82
2022/02/22 13:13:31;;;;;;;;;;;6.40;99.90;;;;;;5054205;28;20298;-82
2022/02/22 13:16:17;;;;;;;;;;;6.40;99.90;;;;;;5051625;28;19974;-82
2022/02/22 13:18:53;;;;;;;;;;;6.50;99.90;;;;;;5067055;28;19913;-80
2022/02/22 13:21:19;;;;;;;;;;;6.50;99.90;;;;;;5062743;28;19916;-80
2022/02/22 13:23:45;;;;;;;;;;;6.50;99.90;;;;;;5056246;28;19920;-81
2022/02/22 13:26:11;;;;;;;;;;;6.50;99.90;;;;;;5048847;28;19921;-82
2022/02/22 13:28:41;;;;;;;;;;;6.50;99.90;;;;;;5032613;28;19971;-84
2022/02/22 13:31:21;;;;;;;;;;;6.60;99.90;;;;;;5042144;28;19924;-81
2022/02/22 13:33:59;;;;;;;;;;;6.60;99.90;;;;;;5038705;28;19917;-83
2022/02/22 13:36:26;;;;;;;;;;;6.60;99.90;;;;;;5063132;28;19913;-84
2022/02/22 13:39:15;;;;;;;;;;;6.60;99.90;;;;;;5044267;28;19917;-85
2022/02/22 13:41:45;;;;;;;;;;;6.60;99.90;;;;;;5034558;28;19960;-81
2022/02/22 13:44:11;;;;;;;;;;;6.70;99.90;;;;;;5039188;28;19924;-82
2022/02/22 13:46:43;;;;;;;;;;;6.70;99.90;;;;;;5057083;28;20473;-81
2022/02/22 13:49:10;;;;;;;;;;;6.70;99.90;;;;;;5045742;28;19924;-82
2022/02/22 13:51:41;;;;;;;;;;;6.80;99.90;;;;;;5043440;28;19913;-82
2022/02/22 13:54:07;;;;;;;;;;;6.90;99.90;;;;;;5047986;28;19913;-83
2022/02/22 13:56:33;;;;;;;;;;;6.90;99.90;;;;;;5028287;28;20406;-81
2022/02/22 13:59:06;;;;;;;;;;;6.90;99.90;;;;;;5038941;28;19917;-82
2022/02/22 14:01:42;;;;;;;;;;;6.90;99.90;;;;;;5049923;28;19918;-82
2022/02/22 14:04:07;;;;;;;;;;;7.00;99.90;;;;;;5052570;28;19920;-83
2022/02/22 14:06:33;;;;;;;;;;;6.90;99.90;;;;;;5034200;28;19924;-82
2022/02/22 14:08:58;;;;;;;;;;;7.00;99.90;;;;;;5032847;28;19917;-83
2022/02/22 14:11:24;;;;;;;;;;;7.00;99.90;;;;;;5030959;28;19921;-83
2022/02/22 14:13:50;;;;;;;;;;;6.90;99.90;;;;;;5051313;28;19917;-83
2022/02/22 14:16:18;;;;;;;;;;;6.80;99.90;;;;;;5054831;28;19924;-85
2022/02/22 14:18:44;;;;;;;;;;;6.60;99.90;;;;;;5054735;28;19921;-82
2022/02/22 14:21:10;;;;;;;;;;;6.50;99.90;;;;;;5046855;28;20047;-84
2022/02/22 14:23:35;;;;;;;;;;;6.50;99.90;;;;;;5052439;28;19966;-82
2022/02/22 14:26:01;;;;;;;;;;;6.40;99.90;;;;;;5050997;28;20398;-83
2022/02/22 14:28:27;;;;;;;;;;;6.40;99.90;;;;;;5043830;28;19921;-83
2022/02/22 14:30:54;;;;;;;;;;;6.40;99.90;;;;;;5037295;28;19917;-86